METAR Data
IDs: Format: Raw Decoded Include TAF

Data at: 0827 UTC 20 Sep 2018

KDKK 200824Z AUTO 18003KT 3SM BR CLR 12/12 A3009 RMK AO2 T01170117 $
KDKK 200821Z AUTO 18003KT 1 1/4SM BR CLR 12/12 A3009 RMK AO2 T01170117 $
KDKK 200812Z AUTO 00000KT 3/4SM BR CLR 11/11 A3009 RMK AO2 T01110111 $
KDKK 200807Z AUTO 00000KT 1 3/4SM BR CLR 12/12 A3008 RMK AO2 T01220122 $
KDKK 200753Z AUTO 00000KT 10SM CLR 12/12 A3008 RMK AO2 SLP186 T01220117 $
KDKK 200748Z AUTO 00000KT 10SM CLR 12/12 A3009 RMK AO2 $
KDKK 200733Z AUTO 00000KT 2 1/2SM BR FEW002 12/12 A3008 RMK AO2 VIS 3/4V5 T01220117 $
KDKK 200728Z AUTO 00000KT 3SM BR CLR 12/12 A3009 RMK AO2 T01220122 $
KDKK 200718Z AUTO 00000KT 1 1/4SM BR CLR 12/12 A3009 RMK AO2 VIS 1/2V3 T01220122 $
KDKK 200712Z AUTO 00000KT 1SM BR VV002 12/12 A3009 RMK AO2 VIS 1/2V5 T01220122 $
KDKK 200709Z AUTO 00000KT 2 1/2SM BR FEW002 12/12 A3008 RMK AO2 T01220122 $
KDKK 200653Z AUTO 00000KT 10SM 12/12 A3008 RMK AO2 SLP186 T01220117 $
KDKK 200639Z AUTO 00000KT 2 1/2SM BR 13/13 A3008 RMK AO2 T01280128 $
KDKK 200553Z AUTO 00000KT 10SM CLR 14/13 A3010 RMK AO2 SLP190 T01390133 10172 20133 56005 $
KDKK 200453Z AUTO 00000KT 10SM CLR 14/14 A3010 RMK AO2 SLP190 T01440139 402170133 $
KDKK 200353Z AUTO 00000KT 10SM CLR 14/14 A3010 RMK AO2 SLP192 T01440144 $
KDKK 200253Z AUTO 05003KT 10SM CLR 14/13 A3011 RMK AO2 SLP195 T01390128 51009 $
KDKK 200153Z AUTO 00000KT 10SM CLR 16/14 A3011 RMK AO2 SLP195 T01560139 $
KDKK 200053Z AUTO 00000KT 10SM CLR 16/14 A3010 RMK AO2 SLP190 T01610139 $
KDKK 192353Z AUTO 08004KT 10SM CLR 17/14 A3008 RMK AO2 SLP186 60000 T01720144 10217 20172 53008 $
KDKK 192253Z AUTO 03005KT 10SM CLR 19/15 A3008 RMK AO2 SLP183 T01940150 $
KDKK 192153Z AUTO 04006KT 10SM FEW025 21/15 A3006 RMK AO2 RAB15E25 SLP176 P0000 T02110150 $
KDKK 192053Z AUTO 01005KT 10SM FEW022 21/15 A3006 RMK AO2 SLP177 T02060150 55002 $
KDKK 191953Z AUTO 35006KT 10SM CLR 21/16 A3005 RMK AO2 SLP172 T02110156 $
KDKK 191853Z AUTO 35008KT 10SM CLR 21/15 A3006 RMK AO2 SLP176 T02110150 $
KDKK 191753Z AUTO 32006KT 10SM CLR 21/15 A3007 RMK AO2 SLP179 T02110150 10217 20178 50006 $
KDKK 191653Z AUTO 36008KT 10SM CLR 21/16 A3007 RMK AO2 PRESRR SLP180 T02110156 $
KDKK 191553Z AUTO 34009KT 10SM FEW019 SCT025 21/16 A3005 RMK AO2 SLP175 T02060156 $
KDKK 191526Z AUTO 34004KT 10SM FEW020 SCT027 20/16 A3005 RMK AO2 T02000156
KDKK 191453Z AUTO 36004KT 10SM FEW016 SCT023 BKN028 20/16 A3005 RMK AO2 SLP172 T02000156 51004
KDKK 191402Z AUTO 35007KT 10SM SCT016 BKN027 19/16 A3005 RMK AO2 T01940156
KDKK 191353Z AUTO 35006KT 10SM FEW018 SCT027 19/16 A3005 RMK AO2 SLP173 T01940156
KDKK 191331Z AUTO 36006KT 10SM SCT027 19/16 A3004 RMK AO2 T01940156
KDKK 191253Z AUTO 02004KT 10SM SCT020 OVC024 18/16 A3004 RMK AO2 SLP169 T01830156
KDKK 191201Z AUTO 02004KT 10SM BKN015 OVC020 18/16 A3002 RMK AO2 T01780156
KDKK 191153Z AUTO 01005KT 10SM OVC013 18/16 A3002 RMK AO2 SLP162 60000 T01780156 10183 20172 53020
KDKK 191053Z AUTO 01005KT 10SM OVC013 18/16 A2999 RMK AO2 SLP152 T01780156 $
KDKK 191011Z AUTO 02004KT 10SM BKN013 OVC018 18/16 A2997 RMK AO2 T01780161 $
KDKK 190953Z AUTO 04004KT 10SM OVC017 18/16 A2996 RMK AO2 RAB08E22 SLP142 P0000 T01780161 $
KDKK 190924Z AUTO 04005KT 10SM OVC015 18/16 A2995 RMK AO2 RAB08E22 P0000 T01780161 $
KDKK 190853Z AUTO 36003KT 10SM OVC014 18/16 A2996 RMK AO2 SLP140 T01780161 53008 $
KDKK 190753Z AUTO 03004KT 10SM BKN014 OVC120 18/16 A2994 RMK AO2 SLP134 T01780161 $
KDKK 190653Z AUTO 02006KT 10SM OVC013 18/16 A2994 RMK AO2 SLP137 T01780161 $
KDKK 190636Z AUTO 35005KT 10SM BKN013 OVC022 18/16 A2995 RMK AO2 T01780161 $
KDKK 190553Z AUTO 02008KT 10SM FEW013 OVC021 18/16 A2993 RMK AO2 SLP132 T01830161 10211 20183 51007 $
KDKK 190453Z AUTO 01003KT 10SM OVC015 19/17 A2992 RMK AO2 SLP129 T01890172 402440161 $
KDKK 190437Z AUTO 00000KT 10SM BKN015 18/17 A2992 RMK AO2 T01830167 $
KDKK 190353Z AUTO 01005KT 10SM SCT036 19/18 A2992 RMK AO2 SLP129 T01940178 $
KDKK 190253Z AUTO 24005KT 8SM FEW006 SCT012 SCT041 21/20 A2991 RMK AO2 SLP125 T02060200 51006 $
KDKK 190222Z AUTO 23006KT 7SM BKN006 BKN012 21/20 A2992 RMK AO2 T02110200 $
KDKK 190215Z AUTO 24006KT 7SM SCT006 BKN012 OVC038 21/20 A2991 RMK AO2 T02110200 $
KDKK 190205Z AUTO 21005KT 8SM BKN008 BKN012 OVC039 21/20 A2991 RMK AO2 CIG 006V010 T02060200 $
KDKK 190153Z AUTO 23006KT 8SM SCT008 BKN037 21/20 A2991 RMK AO2 SLP126 T02060200 $
KDKK 190053Z AUTO 21005KT 6SM BR SCT007 21/20 A2989 RMK AO2 SLP119 T02060200 $
KDKK 190009Z AUTO 6SM BR FEW006 21/20 A2989 RMK AO2 T02110200 $
KDKK 182353Z AUTO 22008KT 7SM BKN006 21/21 A2988 RMK AO2 SLP117 T02110206 10244 20211 51006 $
KDKK 182344Z AUTO 22006KT 7SM BKN006 21/21 A2988 RMK AO2 T02110206 $
KDKK 182332Z AUTO 24007KT 6SM BR SCT006 21/21 A2988 RMK AO2 T02110206 $
KDKK 182253Z AUTO 24009KT 6SM BR CLR 22/20 A2988 RMK AO2 SLP116 T02170200 $
KDKK 182153Z AUTO 23006KT 8SM CLR 23/21 A2987 RMK AO2 SLP111 T02330206 $
KDKK 182053Z AUTO 23011KT 8SM CLR 24/21 A2987 RMK AO2 SLP111 T02390206 55007 $